Time;durP1;ratioP1;P1;durP2;ratioP2;P2;SDS_P1;SDS_P2;PMS_P1;PMS_P2;Temp;Humidity;BMP_temperature;BMP_pressure;BME280_temperature;BME280_humidity;BME280_pressure;Samples;Min_cycle;Max_cycle;Signal;HPM_P1;HPM_P2
2022/07/21 00:01:03;;;;;;;17.42;14.90;;;;;;;;;;5038254;28;20033;-76
2022/07/21 00:03:29;;;;;;;16.63;13.75;;;;;;;;;;5036336;28;20277;-77
2022/07/21 00:05:56;;;;;;;18.05;12.75;;;;;;;;;;5037366;28;20021;-77
2022/07/21 00:08:22;;;;;;;18.00;12.80;;;;;;;;;;5036107;28;20491;-76
2022/07/21 00:10:48;;;;;;;17.75;12.65;;;;;;;;;;5032533;28;20443;-76
2022/07/21 00:13:14;;;;;;;15.48;13.20;;;;;;;;;;5033356;28;20032;-76
2022/07/21 00:15:40;;;;;;;14.82;12.45;;;;;;;;;;5032651;28;20120;-76
2022/07/21 00:18:06;;;;;;;17.45;12.32;;;;;;;;;;5032378;28;20498;-76
2022/07/21 00:20:32;;;;;;;16.75;11.77;;;;;;;;;;5031499;28;20045;-76
2022/07/21 00:22:58;;;;;;;16.20;12.73;;;;;;;;;;5031442;28;20089;-77
2022/07/21 00:25:24;;;;;;;15.43;11.73;;;;;;;;;;5031493;28;20025;-77
2022/07/21 00:27:50;;;;;;;17.27;12.48;;;;;;;;;;5032804;28;20036;-76
2022/07/21 00:30:16;;;;;;;14.75;11.73;;;;;;;;;;5032876;28;20490;-76
2022/07/21 00:32:43;;;;;;;14.20;11.88;;;;;;;;;;5032557;28;20480;-77
2022/07/21 00:35:09;;;;;;;16.27;12.45;;;;;;;;;;5034241;28;20033;-76
2022/07/21 00:37:36;;;;;;;12.55;11.18;;;;;;;;;;5035797;28;20045;-77
2022/07/21 00:40:03;;;;;;;12.98;11.57;;;;;;;;;;5036556;28;20033;-76
2022/07/21 00:42:29;;;;;;;17.00;13.27;;;;;;;;;;5038911;28;20041;-76
2022/07/21 00:44:56;;;;;;;15.77;13.13;;;;;;;;;;5039351;28;20025;-76
2022/07/21 00:47:22;;;;;;;15.63;11.95;;;;;;;;;;5037823;28;20029;-76
2022/07/21 00:49:48;;;;;;;15.43;12.50;;;;;;;;;;5039952;28;20056;-77
2022/07/21 00:52:15;;;;;;;14.48;12.27;;;;;;;;;;5040463;28;20022;-76
2022/07/21 00:54:41;;;;;;;18.20;12.35;;;;;;;;;;5038670;28;20493;-75
2022/07/21 00:57:07;;;;;;;14.30;11.63;;;;;;;;;;5039818;28;20036;-77
2022/07/21 00:59:33;;;;;;;13.82;11.93;;;;;;;;;;5040530;28;20093;-77
2022/07/21 01:01:59;;;;;;;14.50;12.13;;;;;;;;;;5039719;28;20095;-77
2022/07/21 01:04:26;;;;;;;15.43;12.15;;;;;;;;;;5037056;28;20037;-78
2022/07/21 01:06:53;;;;;;;13.27;11.70;;;;;;;;;;5040330;28;20037;-77
2022/07/21 01:09:19;;;;;;;15.98;11.65;;;;;;;;;;5039284;28;20119;-76
2022/07/21 01:11:46;;;;;;;16.33;12.60;;;;;;;;;;5036730;28;20017;-77
2022/07/21 01:14:12;;;;;;;16.27;11.93;;;;;;;;;;5038862;28;20025;-76
2022/07/21 01:16:38;;;;;;;16.30;12.40;;;;;;;;;;5037673;28;20044;-78
2022/07/21 01:19:06;;;;;;;13.93;11.32;;;;;;;;;;5035300;28;20479;-76
2022/07/21 01:21:33;;;;;;;14.82;11.88;;;;;;;;;;5036005;28;20124;-78
2022/07/21 01:23:59;;;;;;;14.27;11.57;;;;;;;;;;5034982;28;20018;-77
2022/07/21 01:26:25;;;;;;;16.48;12.10;;;;;;;;;;5032989;28;20120;-82
2022/07/21 01:28:52;;;;;;;15.43;12.30;;;;;;;;;;5032747;28;20025;-77
2022/07/21 01:31:18;;;;;;;15.23;12.75;;;;;;;;;;5032208;28;20074;-76
2022/07/21 01:33:44;;;;;;;15.40;12.70;;;;;;;;;;5031136;28;20133;-77
2022/07/21 01:36:10;;;;;;;14.68;12.25;;;;;;;;;;5031120;28;20063;-77
2022/07/21 01:41:29;;;;;;;17.50;13.95;;;;;;;;;;5031349;28;20418;-76
2022/07/21 01:43:59;;;;;;;17.17;14.23;;;;;;;;;;5031740;28;20025;-77
2022/07/21 01:46:27;;;;;;;16.42;13.57;;;;;;;;;;5031533;28;20044;-76
2022/07/21 01:48:53;;;;;;;17.23;13.82;;;;;;;;;;5030610;28;20025;-76
2022/07/21 01:51:19;;;;;;;28.95;13.80;;;;;;;;;;5032706;28;20493;-76
2022/07/21 01:53:45;;;;;;;19.60;14.90;;;;;;;;;;5033511;28;20022;-77
2022/07/21 01:56:11;;;;;;;20.13;15.75;;;;;;;;;;5035919;28;20063;-78
2022/07/21 01:58:37;;;;;;;18.30;14.93;;;;;;;;;;5040252;28;20100;-77
2022/07/21 02:01:03;;;;;;;21.92;16.50;;;;;;;;;;5041460;28;20470;-77
2022/07/21 02:03:29;;;;;;;23.92;18.00;;;;;;;;;;5049963;28;20017;-77
2022/07/21 02:06:02;;;;;;;24.88;17.52;;;;;;;;;;5062805;28;20041;-76
2022/07/21 02:08:28;;;;;;;21.63;17.85;;;;;;;;;;5048568;28;20048;-76
2022/07/21 02:10:54;;;;;;;24.73;18.80;;;;;;;;;;5040952;28;20105;-77
2022/07/21 02:13:20;;;;;;;22.98;18.52;;;;;;;;;;5042533;28;20030;-76
2022/07/21 02:15:46;;;;;;;23.20;19.00;;;;;;;;;;5043090;28;20048;-76
2022/07/21 02:18:12;;;;;;;23.83;18.63;;;;;;;;;;5039686;28;20033;-77
2022/07/21 02:20:38;;;;;;;26.73;20.73;;;;;;;;;;5056171;28;20071;-76
2022/07/21 02:23:04;;;;;;;28.10;21.55;;;;;;;;;;5062582;28;20522;-77
2022/07/21 02:25:30;;;;;;;27.35;21.30;;;;;;;;;;5061193;28;20072;-77
2022/07/21 02:27:56;;;;;;;27.17;21.80;;;;;;;;;;5044559;28;20085;-77
2022/07/21 02:30:22;;;;;;;28.63;22.45;;;;;;;;;;5062922;28;20013;-78
2022/07/21 02:32:48;;;;;;;28.27;21.75;;;;;;;;;;5061395;28;20029;-78
2022/07/21 02:35:14;;;;;;;29.70;22.73;;;;;;;;;;5061045;28;20040;-77
2022/07/21 02:37:40;;;;;;;30.75;22.88;;;;;;;;;;5061536;28;20005;-77
2022/07/21 02:40:07;;;;;;;29.65;24.13;;;;;;;;;;5060040;28;20033;-77
2022/07/21 02:42:33;;;;;;;28.50;22.95;;;;;;;;;;5058781;28;20025;-77
2022/07/21 02:44:59;;;;;;;29.00;22.55;;;;;;;;;;5060172;28;20041;-76
2022/07/21 02:47:44;;;;;;;29.65;23.33;;;;;;;;;;5057279;28;20033;-77
2022/07/21 02:50:10;;;;;;;32.25;24.38;;;;;;;;;;5057898;28;20074;-77
2022/07/21 02:52:36;;;;;;;31.65;24.40;;;;;;;;;;5056258;28;20275;-77
2022/07/21 02:55:02;;;;;;;31.02;24.10;;;;;;;;;;5055287;28;20029;-77
2022/07/21 02:57:28;;;;;;;32.47;25.70;;;;;;;;;;5053414;28;20067;-77
2022/07/21 02:59:54;;;;;;;36.58;26.90;;;;;;;;;;5053809;28;20029;-77
2022/07/21 03:02:20;;;;;;;37.80;27.95;;;;;;;;;;5054071;28;20131;-76
2022/07/21 03:04:46;;;;;;;44.08;28.27;;;;;;;;;;5052260;28;20033;-76
2022/07/21 03:07:12;;;;;;;42.40;29.17;;;;;;;;;;5052681;28;20427;-77
2022/07/21 03:09:38;;;;;;;42.95;28.83;;;;;;;;;;5053117;28;20029;-77
2022/07/21 03:12:04;;;;;;;40.15;29.23;;;;;;;;;;5054547;28;20044;-77
2022/07/21 03:14:30;;;;;;;41.15;29.35;;;;;;;;;;5052773;28;20021;-78
2022/07/21 03:16:57;;;;;;;43.17;29.17;;;;;;;;;;5053474;28;20048;-77
2022/07/21 03:19:23;;;;;;;40.53;29.58;;;;;;;;;;5052099;28;20095;-77
2022/07/21 03:21:49;;;;;;;39.75;29.73;;;;;;;;;;5052982;28;20079;-77
2022/07/21 03:24:15;;;;;;;43.28;30.90;;;;;;;;;;5053394;28;20138;-77
2022/07/21 03:26:41;;;;;;;41.65;30.63;;;;;;;;;;5053820;28;20126;-77
2022/07/21 03:29:09;;;;;;;44.10;31.50;;;;;;;;;;5053724;28;20041;-77
2022/07/21 03:31:35;;;;;;;41.80;30.17;;;;;;;;;;5053858;28;20017;-77
2022/07/21 03:34:01;;;;;;;41.42;31.55;;;;;;;;;;5054109;28;20033;-77
2022/07/21 03:36:27;;;;;;;40.70;30.42;;;;;;;;;;5055944;28;20028;-78
2022/07/21 03:38:53;;;;;;;44.20;30.08;;;;;;;;;;5057335;28;20032;-77
2022/07/21 03:41:19;;;;;;;42.50;30.10;;;;;;;;;;5059391;28;20025;-78
2022/07/21 03:43:45;;;;;;;40.97;30.27;;;;;;;;;;5059138;28;20048;-77
2022/07/21 03:46:11;;;;;;;45.28;32.55;;;;;;;;;;5059013;28;20040;-76
2022/07/21 03:48:37;;;;;;;44.42;32.17;;;;;;;;;;5061367;28;20088;-77
2022/07/21 03:51:03;;;;;;;44.78;32.45;;;;;;;;;;5060303;28;20357;-76
2022/07/21 03:53:29;;;;;;;44.10;32.60;;;;;;;;;;5058879;28;20094;-77
2022/07/21 03:55:56;;;;;;;44.22;32.67;;;;;;;;;;5056628;28;20124;-78
2022/07/21 03:58:22;;;;;;;39.65;31.20;;;;;;;;;;5041815;28;20047;-77
2022/07/21 04:00:48;;;;;;;42.70;32.08;;;;;;;;;;5039509;28;20348;-77
2022/07/21 04:03:14;;;;;;;41.47;32.42;;;;;;;;;;5040336;28;20064;-77
2022/07/21 04:05:41;;;;;;;43.30;31.58;;;;;;;;;;5041239;28;20052;-77
2022/07/21 04:08:08;;;;;;;41.75;32.13;;;;;;;;;;5040623;28;20051;-77
2022/07/21 04:10:35;;;;;;;42.67;31.80;;;;;;;;;;5039014;28;20045;-77
2022/07/21 04:13:03;;;;;;;47.33;31.90;;;;;;;;;;5041295;28;20022;-78
2022/07/21 04:15:29;;;;;;;41.00;31.45;;;;;;;;;;5040982;28;20063;-81
2022/07/21 04:17:55;;;;;;;43.92;33.50;;;;;;;;;;5038989;28;20036;-76
2022/07/21 04:20:21;;;;;;;43.65;32.33;;;;;;;;;;5038446;28;20124;-77
2022/07/21 04:22:48;;;;;;;44.90;33.05;;;;;;;;;;5040122;28;20021;-77
2022/07/21 04:25:15;;;;;;;41.88;32.40;;;;;;;;;;5038961;28;20037;-78
2022/07/21 04:27:41;;;;;;;41.53;31.20;;;;;;;;;;5038721;28;20059;-77
2022/07/21 04:30:09;;;;;;;42.53;30.63;;;;;;;;;;5039649;28;20034;-77
2022/07/21 04:32:35;;;;;;;45.60;31.58;;;;;;;;;;5038203;28;20049;-78
2022/07/21 04:35:01;;;;;;;42.92;32.55;;;;;;;;;;5036736;28;20056;-77
2022/07/21 04:37:27;;;;;;;40.13;31.50;;;;;;;;;;5037384;28;20057;-77
2022/07/21 04:39:53;;;;;;;42.00;31.75;;;;;;;;;;5037945;28;20089;-78
2022/07/21 04:42:20;;;;;;;45.65;32.17;;;;;;;;;;5036044;28;20472;-78
2022/07/21 04:44:46;;;;;;;43.22;31.88;;;;;;;;;;5035252;28;20487;-76
2022/07/21 04:47:12;;;;;;;46.22;34.05;;;;;;;;;;5036330;28;20030;-77
2022/07/21 04:49:38;;;;;;;45.55;31.63;;;;;;;;;;5034657;28;20037;-77
2022/07/21 04:52:04;;;;;;;40.78;31.20;;;;;;;;;;5034029;28;20026;-78
2022/07/21 04:54:30;;;;;;;42.15;31.17;;;;;;;;;;5034119;28;20204;-76
2022/07/21 04:56:56;;;;;;;42.67;31.67;;;;;;;;;;5031332;28;20056;-76
2022/07/21 04:59:22;;;;;;;43.38;32.72;;;;;;;;;;5031259;28;20136;-76
2022/07/21 05:01:48;;;;;;;45.22;34.13;;;;;;;;;;5032297;28;20029;-77
2022/07/21 05:04:14;;;;;;;46.20;34.38;;;;;;;;;;5032029;28;20038;-78
2022/07/21 05:06:40;;;;;;;47.65;35.25;;;;;;;;;;5031439;28;20120;-78
2022/07/21 05:09:06;;;;;;;50.65;36.08;;;;;;;;;;5030487;28;20033;-77
2022/07/21 05:11:32;;;;;;;47.05;35.38;;;;;;;;;;5030496;28;20243;-76
2022/07/21 05:13:58;;;;;;;53.45;36.03;;;;;;;;;;5031003;28;20029;-77
2022/07/21 05:16:25;;;;;;;49.25;34.85;;;;;;;;;;5031128;28;20121;-76
2022/07/21 05:18:51;;;;;;;44.45;34.38;;;;;;;;;;5013488;28;20087;-77
2022/07/21 05:21:17;;;;;;;44.63;33.65;;;;;;;;;;5031459;28;20246;-76
2022/07/21 05:23:45;;;;;;;44.10;33.03;;;;;;;;;;5030991;28;20021;-78
2022/07/21 05:26:12;;;;;;;43.65;32.30;;;;;;;;;;5031703;28;20109;-77
2022/07/21 05:28:38;;;;;;;44.22;32.08;;;;;;;;;;5030876;28;20102;-78
2022/07/21 05:31:04;;;;;;;45.63;32.13;;;;;;;;;;5032235;28;20359;-77
2022/07/21 05:33:30;;;;;;;45.78;33.13;;;;;;;;;;5036741;28;20032;-77
2022/07/21 05:35:56;;;;;;;44.70;31.92;;;;;;;;;;5037204;28;20024;-77
2022/07/21 05:38:22;;;;;;;41.20;30.15;;;;;;;;;;5037313;28;20030;-76
2022/07/21 05:40:48;;;;;;;46.88;31.42;;;;;;;;;;5038600;28;20037;-78
2022/07/21 05:43:14;;;;;;;44.65;29.95;;;;;;;;;;5040719;28;20022;-77
2022/07/21 05:45:40;;;;;;;44.67;31.30;;;;;;;;;;5039466;28;20036;-77
2022/07/21 05:48:06;;;;;;;39.83;29.30;;;;;;;;;;5040311;28;20124;-77
2022/07/21 05:50:32;;;;;;;45.90;30.67;;;;;;;;;;5042285;28;20042;-78
2022/07/21 05:52:58;;;;;;;41.63;30.48;;;;;;;;;;5041752;28;20025;-76
2022/07/21 05:55:24;;;;;;;43.90;30.05;;;;;;;;;;5042023;28;20467;-76
2022/07/21 05:57:50;;;;;;;44.38;28.88;;;;;;;;;;5043196;28;20068;-77
2022/07/21 06:00:17;;;;;;;42.85;28.45;;;;;;;;;;5042027;28;20033;-76
2022/07/21 06:02:46;;;;;;;41.88;28.35;;;;;;;;;;5041449;28;20026;-77
2022/07/21 06:05:12;;;;;;;38.80;26.83;;;;;;;;;;5042152;28;20029;-77
2022/07/21 06:07:39;;;;;;;34.67;25.77;;;;;;;;;;5042966;28;20032;-76
2022/07/21 06:10:06;;;;;;;45.40;27.70;;;;;;;;;;5043060;28;20078;-77
2022/07/21 06:12:32;;;;;;;43.35;25.88;;;;;;;;;;5041185;28;20483;-78
2022/07/21 06:14:58;;;;;;;37.20;26.13;;;;;;;;;;5044103;28;20023;-76
2022/07/21 06:17:24;;;;;;;36.40;25.05;;;;;;;;;;5042121;28;20052;-77
2022/07/21 06:19:50;;;;;;;35.05;25.42;;;;;;;;;;5043902;28;20320;-77
2022/07/21 06:22:16;;;;;;;38.35;25.83;;;;;;;;;;5042355;28;20051;-76
2022/07/21 06:24:42;;;;;;;38.38;25.20;;;;;;;;;;5042924;28;20013;-78
2022/07/21 06:27:08;;;;;;;42.17;26.15;;;;;;;;;;5042480;28;20164;-77
2022/07/21 06:29:34;;;;;;;41.78;27.23;;;;;;;;;;5041187;28;20388;-75
2022/07/21 06:32:01;;;;;;;38.65;27.50;;;;;;;;;;5042739;28;20049;-78
2022/07/21 06:34:27;;;;;;;41.70;28.40;;;;;;;;;;5042159;28;20025;-75
2022/07/21 06:36:53;;;;;;;41.17;28.52;;;;;;;;;;5040436;28;20026;-78
2022/07/21 06:39:19;;;;;;;46.58;30.30;;;;;;;;;;5041372;28;20052;-78
2022/07/21 06:41:45;;;;;;;47.53;31.10;;;;;;;;;;5041059;28;20025;-76
2022/07/21 06:44:11;;;;;;;51.17;33.03;;;;;;;;;;5040276;28;20036;-77
2022/07/21 06:46:37;;;;;;;51.58;32.38;;;;;;;;;;5038338;28;20033;-76
2022/07/21 06:49:03;;;;;;;43.17;29.17;;;;;;;;;;5039387;28;20060;-77
2022/07/21 06:51:29;;;;;;;51.25;29.90;;;;;;;;;;5038514;28;20033;-77
2022/07/21 06:53:56;;;;;;;51.47;30.15;;;;;;;;;;5037646;28;20041;-77
2022/07/21 06:56:22;;;;;;;46.58;27.73;;;;;;;;;;5038260;28;20037;-77
2022/07/21 06:58:48;;;;;;;51.95;31.08;;;;;;;;;;5037758;28;20049;-77
2022/07/21 07:01:16;;;;;;;49.65;29.52;;;;;;;;;;5036578;28;20108;-78
2022/07/21 07:03:43;;;;;;;48.78;29.17;;;;;;;;;;5035623;28;20487;-77
2022/07/21 07:06:09;;;;;;;50.17;29.08;;;;;;;;;;5035783;28;20040;-74
2022/07/21 07:08:36;;;;;;;48.10;29.58;;;;;;;;;;5034527;28;20105;-77
2022/07/21 07:11:02;;;;;;;56.83;30.33;;;;;;;;;;5033371;28;20091;-77
2022/07/21 07:13:28;;;;;;;52.55;30.67;;;;;;;;;;5034557;28;20053;-76
2022/07/21 07:15:55;;;;;;;55.92;31.23;;;;;;;;;;5034460;28;20037;-79
2022/07/21 07:18:23;;;;;;;49.20;32.88;;;;;;;;;;5034402;28;20029;-76
2022/07/21 07:20:50;;;;;;;59.45;33.83;;;;;;;;;;5033709;28;20128;-77
2022/07/21 07:23:16;;;;;;;54.80;33.65;;;;;;;;;;5033867;28;20031;-76
2022/07/21 07:25:42;;;;;;;60.72;34.88;;;;;;;;;;5033044;28;20022;-76
2022/07/21 07:28:08;;;;;;;58.33;35.70;;;;;;;;;;5032845;28;20026;-77
2022/07/21 07:30:35;;;;;;;60.92;34.92;;;;;;;;;;5032794;28;20116;-76
2022/07/21 07:33:01;;;;;;;75.97;36.97;;;;;;;;;;5032892;28;20033;-76
2022/07/21 07:35:27;;;;;;;68.18;37.28;;;;;;;;;;5032648;28;20029;-74
2022/07/21 07:37:53;;;;;;;71.35;37.00;;;;;;;;;;5032729;28;20502;-77
2022/07/21 07:40:20;;;;;;;70.50;38.67;;;;;;;;;;5032416;28;20034;-78
2022/07/21 07:42:46;;;;;;;71.32;38.25;;;;;;;;;;5032673;28;20037;-76
2022/07/21 07:45:12;;;;;;;64.88;37.70;;;;;;;;;;5032795;28;20029;-76
2022/07/21 07:47:40;;;;;;;73.53;39.42;;;;;;;;;;5032517;28;20519;-76
2022/07/21 07:50:08;;;;;;;71.40;41.47;;;;;;;;;;5033213;28;20404;-76
2022/07/21 07:52:34;;;;;;;61.35;38.70;;;;;;;;;;5033352;28;20034;-76
2022/07/21 07:55:04;;;;;;;65.88;38.30;;;;;;;;;;5032847;28;20471;-77
2022/07/21 07:57:30;;;;;;;73.20;40.80;;;;;;;;;;5033775;28;20033;-77
2022/07/21 07:59:56;;;;;;;72.55;40.83;;;;;;;;;;5034106;28;20045;-76
2022/07/21 08:02:22;;;;;;;73.25;41.35;;;;;;;;;;5032070;28;20033;-76
2022/07/21 08:04:48;;;;;;;84.13;44.25;;;;;;;;;;5034185;28;20101;-75
2022/07/21 08:07:14;;;;;;;89.32;44.13;;;;;;;;;;5035346;28;20097;-74
2022/07/21 08:09:40;;;;;;;87.50;45.85;;;;;;;;;;5035281;28;20064;-75
2022/07/21 08:12:07;;;;;;;87.75;43.25;;;;;;;;;;5036466;28;20120;-76
2022/07/21 08:14:33;;;;;;;90.68;44.00;;;;;;;;;;5037000;28;20036;-76
2022/07/21 08:16:59;;;;;;;75.55;39.58;;;;;;;;;;5036590;28;20033;-76
2022/07/21 08:19:26;;;;;;;73.85;39.35;;;;;;;;;;5038392;28;20153;-76
2022/07/21 08:21:52;;;;;;;76.40;40.97;;;;;;;;;;5039711;28;20025;-76
2022/07/21 08:24:18;;;;;;;89.43;41.45;;;;;;;;;;5039000;28;20037;-78
2022/07/21 08:26:45;;;;;;;56.50;31.35;;;;;;;;;;5039199;28;20061;-77
2022/07/21 08:29:11;;;;;;;37.42;22.83;;;;;;;;;;5038411;28;20038;-77
2022/07/21 08:31:37;;;;;;;43.10;23.33;;;;;;;;;;5041009;28;20090;-76
2022/07/21 08:34:03;;;;;;;38.20;22.55;;;;;;;;;;5039587;28;20025;-76
2022/07/21 08:36:29;;;;;;;33.35;21.90;;;;;;;;;;5038598;28;20040;-76
2022/07/21 08:38:55;;;;;;;40.95;22.88;;;;;;;;;;5040130;28;20090;-77
2022/07/21 08:41:21;;;;;;;32.42;21.13;;;;;;;;;;5040461;28;20061;-77
2022/07/21 08:43:49;;;;;;;32.63;21.17;;;;;;;;;;5037505;28;20049;-77
2022/07/21 08:46:15;;;;;;;28.48;19.70;;;;;;;;;;5039849;28;20025;-78
2022/07/21 08:48:42;;;;;;;36.28;21.70;;;;;;;;;;5041055;28;20013;-77
2022/07/21 08:51:09;;;;;;;27.52;19.67;;;;;;;;;;5041058;28;20026;-77
2022/07/21 08:53:35;;;;;;;25.17;17.02;;;;;;;;;;5038565;28;20124;-77
2022/07/21 08:56:01;;;;;;;31.08;20.13;;;;;;;;;;5044011;28;20104;-76
2022/07/21 08:58:27;;;;;;;31.30;22.08;;;;;;;;;;5059663;28;20048;-77
2022/07/21 09:00:54;;;;;;;28.85;21.55;;;;;;;;;;5058514;28;20037;-78
2022/07/21 09:03:22;;;;;;;28.77;21.35;;;;;;;;;;5058729;28;20033;-77
2022/07/21 09:06:07;;;;;;;23.02;18.40;;;;;;;;;;5062454;28;20013;-76
2022/07/21 09:08:44;;;;;;;23.17;17.70;;;;;;;;;;5063589;28;20037;-76
2022/07/21 09:11:10;;;;;;;25.15;18.50;;;;;;;;;;5063338;28;20104;-77
2022/07/21 09:13:36;;;;;;;26.83;18.85;;;;;;;;;;5063184;28;20057;-77
2022/07/21 09:16:02;;;;;;;24.30;17.65;;;;;;;;;;5062233;28;20059;-77
2022/07/21 09:18:28;;;;;;;28.55;19.65;;;;;;;;;;5062613;28;20036;-77
2022/07/21 09:20:54;;;;;;;21.08;16.70;;;;;;;;;;5062888;28;20075;-76
2022/07/21 09:23:21;;;;;;;23.33;16.70;;;;;;;;;;5061312;28;20562;-75
2022/07/21 09:25:50;;;;;;;19.63;13.82;;;;;;;;;;5059715;28;20029;-76
2022/07/21 09:28:23;;;;;;;24.15;13.60;;;;;;;;;;5060561;28;20036;-76
2022/07/21 09:30:49;;;;;;;17.48;12.77;;;;;;;;;;5060264;28;20033;-77
2022/07/21 09:33:26;;;;;;;13.95;11.32;;;;;;;;;;5060901;28;20068;-75
2022/07/21 09:35:56;;;;;;;15.13;11.02;;;;;;;;;;5059106;28;20029;-77
2022/07/21 09:38:23;;;;;;;12.95;11.55;;;;;;;;;;5058500;28;20528;-75
2022/07/21 09:40:49;;;;;;;11.68;10.48;;;;;;;;;;5060472;28;20490;-77
2022/07/21 09:43:36;;;;;;;10.48;9.00;;;;;;;;;;5060675;28;20486;-77
2022/07/21 09:46:05;;;;;;;11.75;10.10;;;;;;;;;;5060405;28;20056;-78
2022/07/21 09:48:35;;;;;;;18.55;13.02;;;;;;;;;;5058892;28;20039;-76
2022/07/21 09:51:20;;;;;;;16.90;13.05;;;;;;;;;;5058403;28;20025;-77
2022/07/21 09:53:49;;;;;;;19.33;14.38;;;;;;;;;;5057924;28;20124;-77
2022/07/21 09:56:17;;;;;;;16.48;13.95;;;;;;;;;;5052214;28;20112;-77
2022/07/21 09:58:43;;;;;;;20.23;15.73;;;;;;;;;;5037591;28;20105;-77
2022/07/21 10:01:09;;;;;;;21.20;15.80;;;;;;;;;;5036927;28;20029;-77
2022/07/21 10:03:35;;;;;;;20.05;16.00;;;;;;;;;;5035961;28;20041;-76
2022/07/21 10:06:02;;;;;;;21.83;15.90;;;;;;;;;;5035260;28;20128;-76
2022/07/21 10:08:28;;;;;;;23.65;16.88;;;;;;;;;;5034594;28;20105;-75
2022/07/21 10:10:54;;;;;;;22.55;15.15;;;;;;;;;;5034697;28;20442;-75
2022/07/21 10:13:20;;;;;;;25.23;16.45;;;;;;;;;;5034550;28;20030;-76
2022/07/21 10:15:49;;;;;;;26.13;16.80;;;;;;;;;;5033792;28;20513;-76
2022/07/21 10:18:16;;;;;;;21.70;16.27;;;;;;;;;;5031702;28;20475;-77
2022/07/21 10:20:47;;;;;;;24.63;16.10;;;;;;;;;;5034265;28;20064;-78
2022/07/21 10:23:18;;;;;;;21.65;16.88;;;;;;;;;;5033860;28;20087;-76
2022/07/21 10:25:46;;;;;;;34.13;18.60;;;;;;;;;;5033809;28;20041;-76
2022/07/21 10:28:14;;;;;;;29.63;18.20;;;;;;;;;;5033487;28;20029;-77
2022/07/21 10:30:40;;;;;;;28.90;17.83;;;;;;;;;;5033930;28;20104;-78
2022/07/21 10:33:07;;;;;;;26.52;18.85;;;;;;;;;;5032307;28;20056;-76
2022/07/21 10:35:34;;;;;;;28.00;18.25;;;;;;;;;;5033510;28;20034;-77
2022/07/21 10:38:00;;;;;;;24.42;16.63;;;;;;;;;;5033526;28;20029;-76
2022/07/21 10:40:27;;;;;;;31.67;18.92;;;;;;;;;;5033734;28;20106;-76
2022/07/21 10:42:59;;;;;;;28.42;19.75;;;;;;;;;;5033373;28;20041;-77
2022/07/21 10:45:31;;;;;;;29.45;18.02;;;;;;;;;;5033545;28;20038;-76
2022/07/21 10:47:57;;;;;;;29.08;20.02;;;;;;;;;;5033542;28;20025;-76
2022/07/21 10:50:34;;;;;;;24.67;18.17;;;;;;;;;;5033726;28;20034;-76
2022/07/21 10:53:02;;;;;;;30.27;20.00;;;;;;;;;;5033537;28;20410;-76
2022/07/21 10:55:30;;;;;;;29.42;19.20;;;;;;;;;;5033660;28;20112;-76
2022/07/21 10:58:14;;;;;;;23.70;18.45;;;;;;;;;;5053090;28;20098;-77
2022/07/21 11:01:00;;;;;;;30.33;18.48;;;;;;;;;;5053031;28;20029;-75
2022/07/21 11:03:31;;;;;;;32.92;19.50;;;;;;;;;;5052809;28;20033;-75
2022/07/21 11:06:09;;;;;;;27.48;17.30;;;;;;;;;;5053148;28;20115;-75
2022/07/21 11:08:44;;;;;;;27.58;17.33;;;;;;;;;;5052974;28;20100;-75
2022/07/21 11:11:36;;;;;;;25.02;17.55;;;;;;;;;;5052829;28;20020;-77
2022/07/21 11:14:09;;;;;;;20.92;15.60;;;;;;;;;;5050121;28;20037;-75
2022/07/21 11:16:41;;;;;;;19.42;14.02;;;;;;;;;;5053155;28;20047;-76
2022/07/21 11:19:26;;;;;;;18.35;12.57;;;;;;;;;;5053096;28;20025;-77
2022/07/21 11:21:53;;;;;;;22.25;13.52;;;;;;;;;;5053377;28;20033;-76
2022/07/21 11:24:20;;;;;;;24.75;15.68;;;;;;;;;;5052642;28;20029;-76
2022/07/21 11:26:53;;;;;;;20.52;15.27;;;;;;;;;;5053049;28;20021;-76
2022/07/21 11:29:19;;;;;;;18.38;14.07;;;;;;;;;;5053097;28;20513;-76
2022/07/21 11:31:49;;;;;;;20.98;14.60;;;;;;;;;;5052799;28;20066;-76
2022/07/21 11:34:15;;;;;;;16.75;11.90;;;;;;;;;;5053023;28;20097;-76
2022/07/21 11:36:41;;;;;;;16.88;12.52;;;;;;;;;;5053157;28;20494;-77
2022/07/21 11:39:18;;;;;;;14.52;11.57;;;;;;;;;;5052853;28;20060;-76
2022/07/21 11:41:45;;;;;;;16.85;11.95;;;;;;;;;;5053601;28;20031;-75
2022/07/21 11:44:11;;;;;;;16.95;11.35;;;;;;;;;;5053013;28;20087;-76
2022/07/21 11:46:57;;;;;;;12.27;10.60;;;;;;;;;;5053338;28;20174;-77
2022/07/21 11:49:23;;;;;;;12.10;10.27;;;;;;;;;;5052055;28;20064;-76
2022/07/21 11:51:58;;;;;;;12.35;10.30;;;;;;;;;;5053628;28;20021;-76
2022/07/21 11:54:28;;;;;;;13.50;9.80;;;;;;;;;;5053006;28;20079;-76
2022/07/21 11:56:55;;;;;;;15.13;9.15;;;;;;;;;;5053511;28;20049;-76
2022/07/21 11:59:22;;;;;;;11.00;8.63;;;;;;;;;;5052570;28;20564;-76
2022/07/21 12:02:07;;;;;;;12.25;9.20;;;;;;;;;;5053208;28;20079;-75
2022/07/21 12:04:41;;;;;;;9.93;8.70;;;;;;;;;;5055225;28;20045;-76
2022/07/21 12:07:12;;;;;;;11.27;7.18;;;;;;;;;;5059129;28;20058;-75
2022/07/21 12:09:39;;;;;;;10.25;7.50;;;;;;;;;;5059299;28;20056;-77
2022/07/21 12:12:06;;;;;;;10.40;7.90;;;;;;;;;;5059718;28;20397;-75
2022/07/21 12:14:42;;;;;;;8.43;7.47;;;;;;;;;;5057640;28;20032;-75
2022/07/21 12:17:08;;;;;;;11.63;7.93;;;;;;;;;;5058126;28;20581;-75
2022/07/21 12:19:35;;;;;;;10.65;6.93;;;;;;;;;;5060289;28;20078;-76
2022/07/21 12:22:01;;;;;;;11.80;7.00;;;;;;;;;;5060232;28;20040;-76
2022/07/21 12:24:46;;;;;;;10.40;7.20;;;;;;;;;;5059321;28;20111;-76
2022/07/21 12:27:12;;;;;;;10.90;7.30;;;;;;;;;;5061009;28;20033;-76
2022/07/21 12:29:38;;;;;;;8.23;5.97;;;;;;;;;;5057743;28;20036;-76
2022/07/21 12:32:05;;;;;;;9.75;5.85;;;;;;;;;;5058306;28;20009;-75
2022/07/21 12:34:31;;;;;;;8.68;4.88;;;;;;;;;;5056506;28;20033;-75
2022/07/21 12:36:58;;;;;;;7.72;5.28;;;;;;;;;;5054967;28;20056;-75
2022/07/21 12:42:11;;;;;;;8.68;4.82;;;;;;;;;;5056007;28;20063;-75
2022/07/21 12:44:38;;;;;;;7.68;4.53;;;;;;;;;;5056097;28;20029;-75
2022/07/21 12:47:18;;;;;;;9.65;4.57;;;;;;;;;;5056976;28;20139;-77
2022/07/21 12:49:55;;;;;;;9.20;4.63;;;;;;;;;;5056780;28;20017;-76
2022/07/21 12:52:22;;;;;;;7.70;4.38;;;;;;;;;;5057475;28;20489;-76
2022/07/21 12:54:48;;;;;;;10.10;4.70;;;;;;;;;;5055628;28;20117;-77
2022/07/21 12:57:14;;;;;;;7.80;4.60;;;;;;;;;;5057267;28;20048;-77
2022/07/21 12:59:40;;;;;;;8.70;4.68;;;;;;;;;;5057776;28;20065;-76
2022/07/21 13:02:06;;;;;;;9.60;4.30;;;;;;;;;;5057153;28;20029;-79
2022/07/21 13:04:32;;;;;;;10.88;4.45;;;;;;;;;;5056235;28;20055;-77
2022/07/21 13:06:58;;;;;;;10.90;4.35;;;;;;;;;;5057876;28;20068;-77
2022/07/21 13:09:24;;;;;;;12.95;4.70;;;;;;;;;;5057913;28;20024;-76
2022/07/21 13:11:50;;;;;;;6.72;4.43;;;;;;;;;;5058550;28;20207;-77
2022/07/21 13:14:16;;;;;;;10.38;4.78;;;;;;;;;;5057264;28;20429;-76
2022/07/21 13:16:42;;;;;;;7.03;4.68;;;;;;;;;;5057933;28;20316;-77
2022/07/21 13:19:08;;;;;;;13.13;5.88;;;;;;;;;;5059575;28;20441;-77
2022/07/21 13:21:34;;;;;;;10.02;5.50;;;;;;;;;;5058132;28;20442;-76
2022/07/21 13:24:01;;;;;;;7.70;4.78;;;;;;;;;;5057820;28;20041;-76
2022/07/21 13:26:28;;;;;;;8.18;4.90;;;;;;;;;;5057890;28;20025;-76
2022/07/21 13:28:54;;;;;;;9.50;4.82;;;;;;;;;;5058343;28;20486;-76
2022/07/21 13:31:21;;;;;;;16.20;5.60;;;;;;;;;;5056753;28;20021;-75
2022/07/21 13:33:47;;;;;;;10.02;4.95;;;;;;;;;;5058017;28;20037;-76
2022/07/21 13:36:14;;;;;;;12.30;5.03;;;;;;;;;;5059504;28;20065;-77
2022/07/21 13:38:40;;;;;;;8.73;5.00;;;;;;;;;;5059042;28;20045;-76
2022/07/21 13:41:06;;;;;;;10.38;4.70;;;;;;;;;;5057790;28;20065;-76
2022/07/21 13:43:32;;;;;;;9.70;5.10;;;;;;;;;;5057310;28;20029;-75
2022/07/21 13:45:58;;;;;;;7.57;5.05;;;;;;;;;;5058430;28;20025;-75
2022/07/21 13:48:24;;;;;;;8.85;5.70;;;;;;;;;;5058416;28;20036;-75
2022/07/21 13:50:50;;;;;;;10.35;5.70;;;;;;;;;;5055849;28;20073;-76
2022/07/21 13:53:16;;;;;;;11.27;5.85;;;;;;;;;;5060160;28;20525;-75
2022/07/21 13:55:42;;;;;;;9.77;6.43;;;;;;;;;;5060892;28;20009;-75
2022/07/21 13:58:09;;;;;;;16.13;6.80;;;;;;;;;;5061588;28;20052;-74
2022/07/21 14:00:35;;;;;;;14.25;7.03;;;;;;;;;;5059198;28;20052;-75
2022/07/21 14:03:01;;;;;;;12.32;7.03;;;;;;;;;;5060732;28;20040;-74
2022/07/21 14:05:27;;;;;;;14.70;7.97;;;;;;;;;;5061730;28;20034;-76
2022/07/21 14:07:53;;;;;;;15.15;9.85;;;;;;;;;;5060716;28;20500;-75
2022/07/21 14:10:19;;;;;;;16.77;13.45;;;;;;;;;;5042050;28;20445;-78
2022/07/21 14:12:45;;;;;;;17.67;12.93;;;;;;;;;;5061151;28;20021;-75
2022/07/21 14:15:11;;;;;;;16.38;14.68;;;;;;;;;;5060255;28;20033;-73
2022/07/21 14:17:37;;;;;;;18.60;16.08;;;;;;;;;;5060068;28;20037;-74
2022/07/21 14:20:03;;;;;;;19.70;15.80;;;;;;;;;;5042763;28;20025;-74
2022/07/21 14:22:29;;;;;;;17.70;15.80;;;;;;;;;;5061440;28;20032;-76
2022/07/21 14:27:40;;;;;;;21.17;14.18;;;;;;;;;;5061756;28;20052;-76
2022/07/21 14:30:06;;;;;;;17.88;16.08;;;;;;;;;;5060508;28;20086;-76